Nisshin Maru — JJCJ — position and weather

sailwx.info

Track history (hours):
 
Tides and Currents Weather Stations Pressure Air Temp Water Temp Dewpoint Dewpoint Depression Visibility Wind Speed Wind Dir Waves Ship Positions

Nisshin Maru

Last reported at 2018-Apr-08 18:07 UTC. Time now 2018-Apr-25 00:45 UTC.
Position N 34°01' E 132°46'.
Warning: this ship's position is 16 days out of date.

Length 129 m; draft 6.7 m.

Type: Fishing. MMSI: 431683000.

Date/timePositionNaut miles runAvg speedWind from/ knotsBaromVisibWave heightAir tempDewpointWater temp
2018-Apr-08 18:07N 34°01' E 132°46'1 7.9
2018-Apr-08 18:00N 34°00' E 132°45'4 8.2
2018-Apr-08 17:30N 33°57' E 132°42'5 8.8
2018-Apr-08 16:59N 33°54' E 132°38'4 8.7
2018-Apr-08 16:30N 33°51' E 132°34'5 9.0
2018-Apr-08 15:59N 33°48' E 132°30'4 9.0
2018-Apr-08 15:29N 33°45' E 132°26'5 8.9
2018-Apr-08 14:58N 33°42' E 132°23'4 9.1
2018-Apr-08 14:30N 33°39' E 132°19'5 9.3
2018-Apr-08 14:00N 33°36' E 132°14'15 9.1
2018-Apr-08 12:24N 33°26' E 132°01'4 9.2
2018-Apr-08 11:58N 33°23' E 131°58'5 9.3
2018-Apr-08 11:27N 33°19' E 132°00'4 9.7
2018-Apr-08 11:00N 33°15' E 132°03'510.0
2018-Apr-08 10:29N 33°11' E 132°07'6 0.3
2018-Apr-07 14:28N 33°15' E 132°01'510.1
2018-Apr-07 13:59N 33°19' E 131°58'510.1
2018-Apr-07 13:29N 33°23' E 131°56'510.0
2018-Apr-07 13:00N 33°28' E 131°53'5 9.9
2018-Apr-07 12:30N 33°32' E 131°50'5 9.8
2018-Apr-07 12:00N 33°36' E 131°48'510.2
2018-Apr-07 11:30N 33°41' E 131°45'510.0
2018-Apr-07 11:00N 33°45' E 131°42'510.4
2018-Apr-07 10:30N 33°47' E 131°36'610.4
2018-Apr-07 09:55N 33°48' E 131°29'410.2
2018-Apr-07 09:30N 33°49' E 131°24'510.3
2018-Apr-07 09:00N 33°50' E 131°18'510.3
2018-Apr-07 08:30N 33°51' E 131°12'510.4
2018-Apr-07 08:00N 33°54' E 131°07'510.9
2018-Apr-07 07:30N 33°58' E 131°02'510.1
2018-Apr-07 07:00N 33°57' E 130°56'0 0.6
2018-Apr-07 06:28N 33°57' E 130°56'0 0.0
2018-Apr-07 05:58N 33°57' E 130°56'0 0.0
2018-Apr-07 05:28N 33°57' E 130°56'0 0.0
2018-Apr-07 04:58N 33°57' E 130°56'0 0.0
2018-Apr-07 04:28N 33°57' E 130°56'0 0.0
2018-Apr-07 03:58N 33°57' E 130°56'0 0.0
2018-Apr-07 03:28N 33°57' E 130°56'0 0.0
2018-Apr-07 02:58N 33°57' E 130°56'0 0.0
2018-Apr-07 02:28N 33°57' E 130°56'0 0.0
2018-Apr-07 01:58N 33°57' E 130°56'0 0.0
2018-Apr-07 01:28N 33°57' E 130°56'0 0.0
2018-Apr-07 00:58N 33°57' E 130°56'0 0.0
2018-Apr-07 00:28N 33°57' E 130°56'0 0.0
2018-Apr-06 23:58N 33°57' E 130°56'0 0.0
2018-Apr-06 23:28N 33°57' E 130°56'0 0.0
2018-Apr-06 22:58N 33°57' E 130°56'0 0.0
2018-Apr-06 22:28N 33°57' E 130°56'  
2018-Mar-31 04:41N 33°57' E 130°56'0 0.0
2018-Mar-31 04:29N 33°57' E 130°56'0 0.0
2018-Mar-31 03:59N 33°57' E 130°56'0 0.2
2018-Mar-31 03:29N 33°57' E 130°56'1 1.6
2018-Mar-31 02:58N 33°57' E 130°56'0 0.0
2018-Mar-31 02:28N 33°57' E 130°56'0 0.0
2018-Mar-31 01:58N 33°57' E 130°56'0 0.0
2018-Mar-31 01:28N 33°57' E 130°56'0 0.0
2018-Mar-31 00:58N 33°57' E 130°56'0 0.0
2018-Mar-31 00:28N 33°57' E 130°56'0 0.0
2018-Mar-30 23:58N 33°57' E 130°56'0 0.0
2018-Mar-30 23:28N 33°57' E 130°56'0 0.0
2018-Mar-30 22:58N 33°57' E 130°56'0 0.0
2018-Mar-30 22:28N 33°57' E 130°56'0 0.0
2018-Mar-30 22:00N 33°57' E 130°56'0 0.3
2018-Mar-30 21:31N 33°57' E 130°57'3 5.9
2018-Mar-30 21:00N 33°59' E 130°60'3 5.3
2018-Mar-30 20:30N 33°58' E 131°03'510.1
2018-Mar-30 20:01N 33°55' E 131°07'510.4
2018-Mar-30 19:31N 33°52' E 131°13'510.3
2018-Mar-30 19:01N 33°51' E 131°19'510.2
2018-Mar-30 18:30N 33°49' E 131°25'5 9.9
2018-Mar-30 18:00N 33°48' E 131°31'510.2
2018-Mar-30 17:29N 33°47' E 131°37'510.1
2018-Mar-30 17:01N 33°46' E 131°42'510.0
2018-Mar-30 16:31N 33°42' E 131°46'510.2
2018-Mar-30 16:00N 33°37' E 131°48'5 9.9
2018-Mar-30 15:31N 33°33' E 131°51'810.1
2018-Mar-30 14:44N 33°26' E 131°55'2 9.7
2018-Mar-30 14:29N 33°24' E 131°57'6 9.5
2018-Mar-30 13:54N 33°19' E 132°00'410.4
2018-Mar-30 13:28N 33°15' E 132°03'  
Track history (hours):
 
Tides and Currents Weather Stations Pressure Air Temp Water Temp Dewpoint Dewpoint Depression Visibility Wind Speed Wind Dir Waves Ship Positions

Nisshin Maru

Last reported at 2018-Apr-08 18:07 UTC. Time now 2018-Apr-25 00:45 UTC.
Position N 34°01' E 132°46'.
Warning: this ship's position is 16 days out of date.

Length 129 m; draft 6.7 m.

Type: Fishing. MMSI: 431683000.

Date/timePositionNaut miles runAvg speedWind from/ knotsBaromVisibWave heightAir tempDewpointWater temp
2018-Apr-08 18:07N 34°01' E 132°46'1 7.9
2018-Apr-08 18:00N 34°00' E 132°45'4 8.2
2018-Apr-08 17:30N 33°57' E 132°42'5 8.8
2018-Apr-08 16:59N 33°54' E 132°38'4 8.7
2018-Apr-08 16:30N 33°51' E 132°34'5 9.0
2018-Apr-08 15:59N 33°48' E 132°30'4 9.0
2018-Apr-08 15:29N 33°45' E 132°26'5 8.9
2018-Apr-08 14:58N 33°42' E 132°23'4 9.1
2018-Apr-08 14:30N 33°39' E 132°19'5 9.3
2018-Apr-08 14:00N 33°36' E 132°14'15 9.1
2018-Apr-08 12:24N 33°26' E 132°01'4 9.2
2018-Apr-08 11:58N 33°23' E 131°58'5 9.3
2018-Apr-08 11:27N 33°19' E 132°00'4 9.7
2018-Apr-08 11:00N 33°15' E 132°03'510.0
2018-Apr-08 10:29N 33°11' E 132°07'6 0.3
2018-Apr-07 14:28N 33°15' E 132°01'510.1
2018-Apr-07 13:59N 33°19' E 131°58'510.1
2018-Apr-07 13:29N 33°23' E 131°56'510.0
2018-Apr-07 13:00N 33°28' E 131°53'5 9.9
2018-Apr-07 12:30N 33°32' E 131°50'5 9.8
2018-Apr-07 12:00N 33°36' E 131°48'510.2
2018-Apr-07 11:30N 33°41' E 131°45'510.0
2018-Apr-07 11:00N 33°45' E 131°42'510.4
2018-Apr-07 10:30N 33°47' E 131°36'610.4
2018-Apr-07 09:55N 33°48' E 131°29'410.2
2018-Apr-07 09:30N 33°49' E 131°24'510.3
2018-Apr-07 09:00N 33°50' E 131°18'510.3
2018-Apr-07 08:30N 33°51' E 131°12'510.4
2018-Apr-07 08:00N 33°54' E 131°07'510.9
2018-Apr-07 07:30N 33°58' E 131°02'510.1
2018-Apr-07 07:00N 33°57' E 130°56'0 0.6
2018-Apr-07 06:28N 33°57' E 130°56'0 0.0
2018-Apr-07 05:58N 33°57' E 130°56'0 0.0
2018-Apr-07 05:28N 33°57' E 130°56'0 0.0
2018-Apr-07 04:58N 33°57' E 130°56'0 0.0
2018-Apr-07 04:28N 33°57' E 130°56'0 0.0
2018-Apr-07 03:58N 33°57' E 130°56'0 0.0
2018-Apr-07 03:28N 33°57' E 130°56'0 0.0
2018-Apr-07 02:58N 33°57' E 130°56'0 0.0
2018-Apr-07 02:28N 33°57' E 130°56'0 0.0
2018-Apr-07 01:58N 33°57' E 130°56'0 0.0
2018-Apr-07 01:28N 33°57' E 130°56'0 0.0
2018-Apr-07 00:58N 33°57' E 130°56'0 0.0
2018-Apr-07 00:28N 33°57' E 130°56'0 0.0
2018-Apr-06 23:58N 33°57' E 130°56'0 0.0
2018-Apr-06 23:28N 33°57' E 130°56'0 0.0
2018-Apr-06 22:58N 33°57' E 130°56'0 0.0
2018-Apr-06 22:28N 33°57' E 130°56'  
2018-Mar-31 04:41N 33°57' E 130°56'0 0.0
2018-Mar-31 04:29N 33°57' E 130°56'0 0.0
2018-Mar-31 03:59N 33°57' E 130°56'0 0.2
2018-Mar-31 03:29N 33°57' E 130°56'1 1.6
2018-Mar-31 02:58N 33°57' E 130°56'0 0.0
2018-Mar-31 02:28N 33°57' E 130°56'0 0.0
2018-Mar-31 01:58N 33°57' E 130°56'0 0.0
2018-Mar-31 01:28N 33°57' E 130°56'0 0.0
2018-Mar-31 00:58N 33°57' E 130°56'0 0.0
2018-Mar-31 00:28N 33°57' E 130°56'0 0.0
2018-Mar-30 23:58N 33°57' E 130°56'0 0.0
2018-Mar-30 23:28N 33°57' E 130°56'0 0.0
2018-Mar-30 22:58N 33°57' E 130°56'0 0.0
2018-Mar-30 22:28N 33°57' E 130°56'0 0.0
2018-Mar-30 22:00N 33°57' E 130°56'0 0.3
2018-Mar-30 21:31N 33°57' E 130°57'3 5.9
2018-Mar-30 21:00N 33°59' E 130°60'3 5.3
2018-Mar-30 20:30N 33°58' E 131°03'510.1
2018-Mar-30 20:01N 33°55' E 131°07'510.4
2018-Mar-30 19:31N 33°52' E 131°13'510.3
2018-Mar-30 19:01N 33°51' E 131°19'510.2
2018-Mar-30 18:30N 33°49' E 131°25'5 9.9
2018-Mar-30 18:00N 33°48' E 131°31'510.2
2018-Mar-30 17:29N 33°47' E 131°37'510.1
2018-Mar-30 17:01N 33°46' E 131°42'510.0
2018-Mar-30 16:31N 33°42' E 131°46'510.2
2018-Mar-30 16:00N 33°37' E 131°48'5 9.9
2018-Mar-30 15:31N 33°33' E 131°51'810.1
2018-Mar-30 14:44N 33°26' E 131°55'2 9.7
2018-Mar-30 14:29N 33°24' E 131°57'6 9.5
2018-Mar-30 13:54N 33°19' E 132°00'410.4
2018-Mar-30 13:28N 33°15' E 132°03'  

Dump ship's entire track history